createdAt,value
2022-11-09T00:02:06.023Z,15.47
2022-11-09T00:04:36.170Z,15.43
2022-11-09T00:07:06.291Z,15.40
2022-11-09T00:09:36.457Z,15.45
2022-11-09T00:12:07.587Z,15.44
2022-11-09T00:14:38.868Z,15.50
2022-11-09T00:17:11.805Z,15.54
2022-11-09T00:19:41.910Z,15.60
2022-11-09T00:22:12.454Z,15.60
2022-11-09T00:24:42.542Z,15.62
2022-11-09T00:27:17.350Z,15.56
2022-11-09T00:29:47.761Z,15.59
2022-11-09T00:32:27.620Z,15.51
2022-11-09T00:34:58.094Z,15.47
2022-11-09T00:37:28.243Z,15.46
2022-11-09T00:39:58.295Z,15.43
2022-11-09T00:42:30.560Z,15.46
2022-11-09T00:45:00.773Z,15.54
2022-11-09T00:47:33.478Z,15.52
2022-11-09T00:50:03.654Z,15.52
2022-11-09T00:52:33.730Z,15.53
2022-11-09T00:55:03.944Z,15.53
2022-11-09T00:57:34.527Z,15.53
2022-11-09T01:00:04.591Z,15.52
2022-11-09T01:02:37.221Z,15.42
2022-11-09T01:05:08.804Z,15.39
2022-11-09T01:07:40.189Z,15.42
2022-11-09T01:10:11.753Z,15.48
2022-11-09T01:12:42.003Z,15.47
2022-11-09T01:15:13.136Z,15.46
2022-11-09T01:17:46.138Z,15.49
2022-11-09T01:20:16.579Z,15.52
2022-11-09T01:22:47.054Z,15.50
2022-11-09T01:25:17.285Z,15.55
2022-11-09T01:27:47.679Z,15.59
2022-11-09T01:30:17.892Z,15.63
2022-11-09T01:32:50.541Z,15.68
2022-11-09T01:35:20.730Z,15.74
2022-11-09T01:37:50.955Z,15.72
2022-11-09T01:40:21.286Z,15.72
2022-11-09T01:42:51.389Z,15.71
2022-11-09T01:45:28.441Z,15.74
2022-11-09T01:48:08.126Z,15.73
2022-11-09T01:50:44.129Z,15.69
2022-11-09T01:53:22.331Z,15.70
2022-11-09T01:55:56.341Z,15.67
2022-11-09T01:58:31.265Z,15.72
2022-11-09T02:01:05.224Z,15.62
2022-11-09T02:03:44.661Z,15.55
2022-11-09T02:06:19.545Z,15.53
2022-11-09T02:08:51.580Z,15.57
2022-11-09T02:11:25.187Z,15.56
2022-11-09T02:14:01.160Z,15.54
2022-11-09T02:16:32.376Z,15.53
2022-11-09T02:19:05.162Z,15.50
2022-11-09T02:21:38.012Z,15.41
2022-11-09T02:24:09.557Z,15.36
2022-11-09T02:26:47.475Z,15.35
2022-11-09T02:29:21.929Z,15.36
2022-11-09T02:31:57.864Z,15.39
2022-11-09T02:34:28.757Z,15.40
2022-11-09T02:37:03.559Z,15.34
2022-11-09T02:39:35.448Z,15.27
2022-11-09T02:42:11.472Z,15.30
2022-11-09T02:44:48.262Z,15.28
2022-11-09T02:47:18.506Z,15.28
2022-11-09T02:49:50.534Z,15.26
2022-11-09T02:52:23.498Z,15.29
2022-11-09T02:54:55.169Z,15.31
2022-11-09T02:57:25.258Z,15.31
2022-11-09T02:59:55.375Z,15.36
2022-11-09T03:02:25.730Z,15.44
2022-11-09T03:04:55.844Z,15.44
2022-11-09T03:07:28.642Z,15.49
2022-11-09T03:09:59.632Z,15.46
2022-11-09T03:12:33.365Z,15.52
2022-11-09T03:15:15.338Z,15.50
2022-11-09T03:17:48.637Z,15.52
2022-11-09T03:20:20.588Z,15.53
2022-11-09T03:22:54.571Z,15.52
2022-11-09T03:25:24.742Z,15.50
2022-11-09T03:28:00.741Z,15.49
2022-11-09T03:30:31.506Z,15.48
2022-11-09T03:33:02.916Z,15.50
2022-11-09T03:35:34.059Z,15.37
2022-11-09T03:38:07.748Z,15.21
2022-11-09T03:40:39.170Z,15.24
2022-11-09T03:43:09.719Z,15.25
2022-11-09T03:45:39.998Z,15.23
2022-11-09T03:48:10.235Z,15.20
2022-11-09T03:50:41.203Z,15.21
2022-11-09T03:53:14.043Z,15.24
2022-11-09T03:55:44.554Z,15.22
2022-11-09T03:58:15.283Z,15.26
2022-11-09T04:00:45.515Z,15.27
2022-11-09T04:03:15.756Z,15.29
2022-11-09T04:05:45.829Z,15.29
2022-11-09T04:08:18.546Z,15.29
2022-11-09T04:10:48.725Z,15.29
2022-11-09T04:13:19.237Z,15.29
2022-11-09T04:15:49.493Z,15.29
2022-11-09T04:18:20.287Z,15.29
2022-11-09T04:20:50.422Z,15.35
2022-11-09T04:23:23.259Z,15.36
2022-11-09T04:25:53.601Z,15.41
2022-11-09T04:28:23.785Z,15.47
2022-11-09T04:30:53.803Z,15.53
2022-11-09T04:33:24.079Z,15.48
2022-11-09T04:35:54.210Z,15.45
2022-11-09T04:38:26.891Z,15.41
2022-11-09T04:40:56.985Z,15.39
2022-11-09T04:43:27.006Z,15.38
2022-11-09T04:45:57.326Z,15.38
2022-11-09T04:48:27.462Z,15.29
2022-11-09T04:51:03.429Z,15.26
2022-11-09T04:53:37.478Z,15.27
2022-11-09T04:56:09.294Z,15.18
2022-11-09T04:58:39.391Z,15.16
2022-11-09T05:01:12.736Z,15.11
2022-11-09T05:03:43.728Z,15.12
2022-11-09T05:06:26.697Z,15.14
2022-11-09T05:08:59.963Z,15.11
2022-11-09T05:11:30.373Z,15.05
2022-11-09T05:14:00.629Z,15.00
2022-11-09T05:16:32.481Z,14.89
2022-11-09T05:19:02.733Z,14.91
2022-11-09T05:21:32.902Z,14.93
2022-11-09T05:24:03.163Z,14.96
2022-11-09T05:26:36.009Z,14.94
2022-11-09T05:29:09.895Z,14.89
2022-11-09T05:31:41.984Z,14.89
2022-11-09T05:34:16.080Z,14.92
2022-11-09T05:36:46.251Z,14.97
2022-11-09T05:39:18.942Z,15.02
2022-11-09T05:41:49.077Z,15.08
2022-11-09T05:44:19.131Z,15.08
2022-11-09T05:46:49.194Z,15.08
2022-11-09T05:49:19.389Z,15.09
2022-11-09T05:51:49.546Z,15.02
2022-11-09T05:54:22.250Z,14.95
2022-11-09T05:56:52.291Z,14.90
2022-11-09T05:59:22.443Z,14.93
2022-11-09T06:01:52.633Z,14.81
2022-11-09T06:04:22.789Z,14.78
2022-11-09T06:06:52.919Z,14.81
2022-11-09T06:09:25.636Z,14.83
2022-11-09T06:11:55.744Z,14.80
2022-11-09T06:14:25.875Z,14.74
2022-11-09T06:16:56.110Z,14.74
2022-11-09T06:19:26.375Z,14.76
2022-11-09T06:21:56.375Z,14.74
2022-11-09T06:24:29.112Z,14.67
2022-11-09T06:27:00.152Z,14.59
2022-11-09T06:29:30.287Z,14.68
2022-11-09T06:32:00.342Z,14.70
2022-11-09T06:34:30.783Z,14.78
2022-11-09T06:37:01.011Z,14.72
2022-11-09T06:39:33.748Z,14.69
2022-11-09T06:42:04.199Z,14.70
2022-11-09T06:44:34.291Z,14.78
2022-11-09T06:47:04.334Z,14.80
2022-11-09T06:49:34.483Z,14.94
2022-11-09T06:52:04.770Z,15.03
2022-11-09T06:54:37.500Z,14.99
2022-11-09T06:57:07.784Z,14.94
2022-11-09T06:59:40.724Z,14.89
2022-11-09T07:02:12.287Z,14.97
2022-11-09T07:04:42.441Z,15.08
2022-11-09T07:07:13.171Z,15.04
2022-11-09T07:09:46.014Z,15.03
2022-11-09T07:12:16.257Z,15.07
2022-11-09T07:14:46.483Z,15.21
2022-11-09T07:17:16.641Z,15.22
2022-11-09T07:19:46.873Z,15.16
2022-11-09T07:22:17.165Z,15.30
2022-11-09T07:24:49.957Z,15.35
2022-11-09T07:27:23.611Z,15.29
2022-11-09T07:29:57.516Z,15.39
2022-11-09T07:32:53.790Z,15.40
2022-11-09T07:35:17.975Z,15.34
2022-11-09T07:37:48.097Z,15.45
2022-11-09T07:40:20.946Z,15.42
2022-11-09T07:42:51.100Z,15.47
2022-11-09T07:45:21.225Z,15.46
2022-11-09T07:47:51.301Z,15.45
2022-11-09T07:50:21.595Z,15.47
2022-11-09T07:52:51.719Z,15.51
2022-11-09T07:55:24.422Z,15.48
2022-11-09T07:57:59.351Z,15.57
2022-11-09T08:00:31.768Z,15.61
2022-11-09T08:03:02.184Z,15.56
2022-11-09T08:05:32.856Z,15.54
2022-11-09T08:08:06.457Z,15.53
2022-11-09T08:10:40.535Z,15.63
2022-11-09T08:13:14.648Z,15.51
2022-11-09T08:15:46.263Z,15.50
2022-11-09T08:18:20.092Z,15.53
2022-11-09T08:20:50.661Z,15.43
2022-11-09T08:23:23.254Z,15.38
2022-11-09T08:25:56.047Z,15.25
2022-11-09T08:28:26.781Z,15.21
2022-11-09T08:31:02.669Z,15.37
2022-11-09T08:33:37.016Z,15.45
2022-11-09T08:36:13.274Z,15.36
2022-11-09T08:38:44.698Z,15.25
2022-11-09T08:41:17.630Z,15.31
2022-11-09T08:43:47.786Z,15.28
2022-11-09T08:46:17.910Z,15.27
2022-11-09T08:48:48.164Z,15.37
2022-11-09T08:51:18.282Z,15.30
2022-11-09T08:53:48.609Z,15.26
2022-11-09T08:56:21.758Z,15.22
2022-11-09T08:58:51.976Z,15.28
2022-11-09T09:01:22.175Z,15.33
2022-11-09T09:03:52.358Z,15.37
2022-11-09T09:06:25.689Z,15.38
2022-11-09T09:08:58.353Z,15.37
2022-11-09T09:11:31.149Z,15.35
2022-11-09T09:14:01.361Z,15.48
2022-11-09T09:16:31.904Z,15.61
2022-11-09T09:19:02.122Z,15.61
2022-11-09T09:21:32.282Z,15.60
2022-11-09T09:24:02.308Z,15.59
2022-11-09T09:26:35.260Z,15.57
2022-11-09T09:29:05.613Z,15.69
2022-11-09T09:31:35.830Z,15.75
2022-11-09T09:34:06.218Z,15.79
2022-11-09T09:36:36.305Z,15.91
2022-11-09T09:39:06.994Z,16.08
2022-11-09T09:41:49.504Z,15.95
2022-11-09T09:44:28.290Z,15.97
2022-11-09T09:47:10.822Z,16.02
2022-11-09T09:49:49.306Z,16.00
2022-11-09T09:52:29.457Z,15.93
2022-11-09T09:55:07.156Z,16.08
2022-11-09T09:57:42.411Z,16.22
2022-11-09T10:00:28.728Z,16.25
2022-11-09T10:02:59.070Z,16.06
2022-11-09T10:05:44.617Z,16.09
2022-11-09T10:08:24.946Z,16.12
2022-11-09T10:11:12.558Z,16.12
2022-11-09T10:14:04.335Z,16.07
2022-11-09T10:16:44.286Z,16.12
2022-11-09T10:19:37.844Z,16.02
2022-11-09T10:22:18.005Z,16.07
2022-11-09T10:25:20.797Z,15.96
2022-11-09T10:27:54.895Z,16.02
2022-11-09T10:30:30.728Z,16.46
2022-11-09T10:33:24.012Z,16.88
2022-11-09T10:36:07.909Z,16.91
2022-11-09T10:38:45.259Z,16.92
2022-11-09T10:41:42.157Z,16.98
2022-11-09T10:44:30.818Z,17.56
2022-11-09T10:47:22.712Z,18.33
2022-11-09T10:50:25.840Z,18.65
2022-11-09T10:53:19.719Z,18.87
2022-11-09T10:56:20.840Z,18.66
2022-11-09T10:59:45.337Z,19.01
2022-11-09T11:02:50.167Z,18.52
2022-11-09T11:05:39.980Z,18.89
2022-11-09T11:08:37.357Z,18.94
2022-11-09T11:11:34.952Z,18.67
2022-11-09T11:14:32.292Z,19.50
2022-11-09T11:17:26.597Z,19.71
2022-11-09T11:20:35.399Z,19.94
2022-11-09T11:23:26.693Z,20.10
2022-11-09T11:26:43.704Z,20.95
2022-11-09T11:29:46.760Z,21.36
2022-11-09T11:32:35.677Z,20.81
2022-11-09T11:35:43.289Z,20.53
2022-11-09T11:38:39.039Z,21.06
2022-11-09T11:42:11.565Z,20.88
2022-11-09T11:45:39.534Z,20.30
2022-11-09T11:48:56.888Z,19.33
2022-11-09T11:51:59.432Z,18.94
2022-11-09T11:55:21.450Z,18.64
2022-11-09T11:58:33.455Z,18.25
2022-11-09T12:01:42.251Z,17.77
2022-11-09T12:05:00.753Z,17.78
2022-11-09T12:08:02.247Z,17.54
2022-11-09T12:10:59.860Z,17.53
2022-11-09T12:14:06.317Z,17.38
2022-11-09T12:17:07.842Z,17.44
2022-11-09T12:20:25.663Z,17.58
2022-11-09T12:23:41.363Z,18.58
2022-11-09T12:26:47.735Z,19.74
2022-11-09T12:29:55.783Z,19.59
2022-11-09T12:32:53.563Z,19.42
2022-11-09T12:35:50.257Z,19.68
2022-11-09T12:38:55.950Z,19.49
2022-11-09T12:41:46.610Z,18.87
2022-11-09T12:44:40.094Z,18.21
2022-11-09T12:47:37.829Z,18.08
2022-11-09T12:50:29.340Z,18.13
2022-11-09T12:53:20.047Z,18.12
2022-11-09T12:56:22.168Z,18.18
2022-11-09T12:59:25.314Z,17.94
2022-11-09T13:02:31.880Z,18.03
2022-11-09T13:05:40.425Z,18.26
2022-11-09T13:08:32.959Z,18.20
2022-11-09T13:11:31.206Z,17.94
2022-11-09T13:14:40.763Z,17.98
2022-11-09T13:18:04.195Z,18.07
2022-11-09T13:20:58.489Z,18.40
2022-11-09T13:24:00.844Z,18.42
2022-11-09T13:27:05.752Z,18.32
2022-11-09T13:29:56.782Z,18.86
2022-11-09T13:33:21.842Z,19.10
2022-11-09T13:36:22.357Z,19.22
2022-11-09T13:39:31.108Z,19.33
2022-11-09T13:42:35.330Z,19.81
2022-11-09T13:45:36.389Z,19.80
2022-11-09T13:48:43.074Z,20.19
2022-11-09T13:51:47.983Z,20.24
2022-11-09T13:54:38.165Z,20.26
2022-11-09T13:57:31.394Z,19.94
2022-11-09T14:00:24.588Z,19.83
2022-11-09T14:03:25.051Z,20.16
2022-11-09T14:06:16.453Z,20.27
2022-11-09T14:09:07.277Z,20.00
2022-11-09T14:12:21.097Z,19.44
2022-11-09T14:15:36.219Z,19.20
2022-11-09T14:18:40.126Z,18.83
2022-11-09T14:21:49.140Z,18.63
2022-11-09T14:24:41.505Z,18.21
2022-11-09T14:27:30.375Z,18.32
2022-11-09T14:30:26.560Z,18.16
2022-11-09T14:33:25.459Z,18.15
2022-11-09T14:36:16.564Z,18.36
2022-11-09T14:39:10.067Z,18.25
2022-11-09T14:42:00.233Z,17.91
2022-11-09T14:44:50.471Z,17.62
2022-11-09T14:47:41.812Z,17.49
2022-11-09T14:50:34.731Z,17.23
2022-11-09T14:53:27.117Z,16.83
2022-11-09T14:56:20.087Z,16.72
2022-11-09T14:59:10.782Z,16.62
2022-11-09T15:02:06.758Z,16.53
2022-11-09T15:05:03.736Z,16.45
2022-11-09T15:07:52.710Z,16.39
2022-11-09T15:10:42.143Z,16.20
2022-11-09T15:13:36.050Z,16.06
2022-11-09T15:16:27.856Z,15.98
2022-11-09T15:19:31.914Z,15.89
2022-11-09T15:22:59.312Z,15.76
2022-11-09T15:25:58.684Z,15.71
2022-11-09T15:28:50.788Z,15.72
2022-11-09T15:31:40.292Z,15.63
2022-11-09T15:34:34.639Z,15.62
2022-11-09T15:37:28.704Z,15.54
2022-11-09T15:40:22.792Z,15.57
2022-11-09T15:43:11.923Z,15.47
2022-11-09T15:46:03.792Z,15.40
2022-11-09T15:48:52.871Z,15.46
2022-11-09T15:51:42.019Z,15.46
2022-11-09T15:54:32.385Z,15.40
2022-11-09T15:57:24.442Z,15.35
2022-11-09T16:00:20.746Z,15.35
2022-11-09T16:03:10.797Z,15.27
2022-11-09T16:05:59.752Z,15.27
2022-11-09T16:08:51.221Z,15.23
2022-11-09T16:11:39.871Z,15.13
2022-11-09T16:14:34.817Z,15.06
2022-11-09T16:17:23.605Z,15.03
2022-11-09T16:20:14.504Z,15.03
2022-11-09T16:23:03.356Z,15.11
2022-11-09T16:25:52.054Z,15.02
2022-11-09T16:28:41.791Z,15.01
2022-11-09T16:31:51.888Z,14.97
2022-11-09T16:34:40.788Z,14.98
2022-11-09T16:37:31.703Z,15.01
2022-11-09T16:40:21.115Z,14.88
2022-11-09T16:43:10.509Z,14.89
2022-11-09T16:45:59.565Z,14.99
2022-11-09T16:48:50.888Z,14.95
2022-11-09T16:51:40.019Z,14.97
2022-11-09T16:54:29.264Z,15.01
2022-11-09T16:57:18.701Z,14.94
2022-11-09T17:00:10.494Z,14.96
2022-11-09T17:02:59.646Z,15.00
2022-11-09T17:05:51.256Z,15.00
2022-11-09T17:08:40.014Z,14.97
2022-11-09T17:11:28.891Z,14.97
2022-11-09T17:14:17.823Z,14.95
2022-11-09T17:17:07.113Z,15.04
2022-11-09T17:19:56.304Z,15.13
2022-11-09T17:22:48.642Z,15.22
2022-11-09T17:25:38.175Z,15.03
2022-11-09T17:28:28.668Z,15.09
2022-11-09T17:31:21.185Z,15.20
2022-11-09T17:34:12.376Z,15.15
2022-11-09T17:37:04.715Z,15.09
2022-11-09T17:39:57.060Z,15.04
2022-11-09T17:42:46.295Z,14.97
2022-11-09T17:45:38.121Z,14.89
2022-11-09T17:48:27.508Z,14.84
2022-11-09T17:51:18.654Z,14.84
2022-11-09T17:54:08.345Z,14.99
2022-11-09T17:57:01.172Z,15.09
2022-11-09T17:59:50.409Z,15.07
2022-11-09T18:02:39.833Z,15.15
2022-11-09T18:05:29.231Z,15.09
2022-11-09T18:08:18.784Z,15.21
2022-11-09T18:11:09.124Z,15.24
2022-11-09T18:14:01.205Z,15.22
2022-11-09T18:16:50.208Z,15.24
2022-11-09T18:19:39.280Z,15.27
2022-11-09T18:22:28.158Z,15.19
2022-11-09T18:25:17.486Z,15.16
2022-11-09T18:28:06.295Z,15.11
2022-11-09T18:31:03.658Z,15.00
2022-11-09T18:33:53.579Z,14.92
2022-11-09T18:36:42.499Z,14.90
2022-11-09T18:39:32.798Z,14.90
2022-11-09T18:42:21.811Z,14.98
2022-11-09T18:45:13.437Z,14.94
2022-11-09T18:48:04.279Z,14.89
2022-11-09T18:50:54.528Z,14.88
2022-11-09T18:53:46.372Z,14.93
2022-11-09T18:56:35.260Z,14.82
2022-11-09T18:59:24.466Z,14.85
2022-11-09T19:02:16.237Z,14.85
2022-11-09T19:05:09.487Z,14.84
2022-11-09T19:07:59.541Z,14.83
2022-11-09T19:10:48.815Z,14.84
2022-11-09T19:13:37.900Z,14.77
2022-11-09T19:16:28.817Z,14.72
2022-11-09T19:19:19.122Z,14.83
2022-11-09T19:22:19.244Z,14.80
2022-11-09T19:25:09.677Z,14.79
2022-11-09T19:27:58.894Z,14.77
2022-11-09T19:30:47.887Z,14.85
2022-11-09T19:33:36.697Z,15.02
2022-11-09T19:36:30.959Z,14.97
2022-11-09T19:39:22.822Z,14.89
2022-11-09T19:42:11.832Z,15.03
2022-11-09T19:45:00.777Z,15.16
2022-11-09T19:47:51.916Z,15.09
2022-11-09T19:50:40.657Z,15.07
2022-11-09T19:53:30.462Z,14.98
2022-11-09T19:56:22.579Z,14.89
2022-11-09T19:59:16.718Z,14.74
2022-11-09T20:02:06.075Z,14.78
2022-11-09T20:04:55.046Z,14.73
2022-11-09T20:07:44.270Z,14.73
2022-11-09T20:10:33.450Z,14.66
2022-11-09T20:13:25.997Z,14.60
2022-11-09T20:16:15.261Z,14.53
2022-11-09T20:19:05.193Z,14.55
2022-11-09T20:21:54.250Z,14.53
2022-11-09T20:24:43.496Z,14.43
2022-11-09T20:27:32.912Z,14.48
2022-11-09T20:30:24.551Z,14.51
2022-11-09T20:33:13.741Z,14.55
2022-11-09T20:36:02.479Z,14.55
2022-11-09T20:38:52.009Z,14.57
2022-11-09T20:41:40.691Z,14.52
2022-11-09T20:44:29.682Z,14.49
2022-11-09T20:47:35.777Z,14.42
2022-11-09T20:50:30.914Z,14.44
2022-11-09T20:53:19.825Z,14.37
2022-11-09T20:56:09.623Z,14.33
2022-11-09T20:58:58.360Z,14.35
2022-11-09T21:01:47.191Z,14.26
2022-11-09T21:04:38.612Z,14.12
2022-11-09T21:07:27.753Z,14.00
2022-11-09T21:10:16.577Z,13.86
2022-11-09T21:13:05.789Z,13.98
2022-11-09T21:15:55.081Z,13.72
2022-11-09T21:18:44.495Z,13.64
2022-11-09T21:21:36.794Z,13.68
2022-11-09T21:24:38.049Z,13.75
2022-11-09T21:27:41.184Z,13.68
2022-11-09T21:30:34.936Z,13.49
2022-11-09T21:33:23.942Z,13.55
2022-11-09T21:36:15.214Z,13.56
2022-11-09T21:39:07.453Z,13.54
2022-11-09T21:41:56.433Z,13.61
2022-11-09T21:44:45.321Z,13.77
2022-11-09T21:47:34.819Z,13.84
2022-11-09T21:50:24.037Z,13.89
2022-11-09T21:53:12.906Z,13.49
2022-11-09T21:56:05.299Z,13.41
2022-11-09T21:58:54.481Z,13.48
2022-11-09T22:01:43.915Z,13.56
2022-11-09T22:04:33.234Z,13.61
2022-11-09T22:07:22.087Z,13.63
2022-11-09T22:10:12.740Z,13.58
2022-11-09T22:13:16.800Z,13.60
2022-11-09T22:16:10.690Z,13.64
2022-11-09T22:19:11.983Z,13.67
2022-11-09T22:22:00.735Z,13.63
2022-11-09T22:24:49.624Z,13.61
2022-11-09T22:27:38.876Z,13.60
2022-11-09T22:30:30.568Z,13.69
2022-11-09T22:33:25.892Z,13.77
2022-11-09T22:36:18.744Z,13.78
2022-11-09T22:39:07.866Z,13.71
2022-11-09T22:41:56.778Z,13.67
2022-11-09T22:44:45.732Z,13.71
2022-11-09T22:47:37.449Z,13.73
2022-11-09T22:50:26.177Z,13.73
2022-11-09T22:53:15.091Z,13.61
2022-11-09T22:56:06.253Z,13.65
2022-11-09T22:58:55.980Z,13.60
2022-11-09T23:01:45.202Z,13.67
2022-11-09T23:04:37.212Z,13.72
2022-11-09T23:07:26.302Z,13.64
2022-11-09T23:10:15.042Z,13.52
2022-11-09T23:13:05.238Z,13.46
2022-11-09T23:15:59.011Z,13.29
2022-11-09T23:18:58.017Z,13.26
2022-11-09T23:21:49.797Z,13.27
2022-11-09T23:24:51.130Z,13.22
2022-11-09T23:27:39.800Z,13.15
2022-11-09T23:30:29.609Z,13.05
2022-11-09T23:33:18.867Z,13.08
2022-11-09T23:36:11.937Z,13.13
2022-11-09T23:39:04.004Z,13.14
2022-11-09T23:41:52.780Z,13.14
2022-11-09T23:44:41.550Z,13.13
2022-11-09T23:47:30.172Z,13.16
2022-11-09T23:50:19.346Z,13.11
2022-11-09T23:53:08.779Z,13.17
2022-11-09T23:56:03.937Z,13.09
2022-11-09T23:58:52.715Z,13.02
